• Join FlightAware (Why Join?)
  • Login
  • US Flag 
02:23AM EDT


 

Airport Tracker/Info


-or-


 

Live Flight TrackerFlight Track Log ✈ N97FG ✈ 25-Jun-2013 ✈ CYQX - KPTK

Flight Track Log - Related Links

Times and Time Zones

All times are in EDT time to prevent confusion due to time zone crossing. See the N97FG flight status page for this flight to view local times or setup timezone preferences in your user account.

Time Position Orientation Groundspeed Altitude Reporting Facility
EDT Latitude Longitude Course Direction KTS MPH feet Rate Location/Type
09:19PM 48.8667 -54.5500 213° Southwest 210 242 1,900  Level Gander Center
09:20PM 48.8167 -54.6000 213° Southwest 250 288 5,100 3,000 Climbing Gander Center
09:21PM 48.7833 -54.6833 239° Southwest 260 299 7,900 2,700 Climbing Gander Center
09:22PM 48.7833 -54.8167 270° West 270 311 10,500 2,340 Climbing Gander Center
09:23PM 48.7667 -54.9333 258° West 290 334 12,600 2,160 Climbing Gander Center
09:24PM 48.7667 -55.0667 270° West 310 357 14,900 2,040 Climbing Gander Center
09:25PM 48.7333 -55.2000 249° West 310 357 16,700 1,800 Climbing Gander Center
09:26PM 48.7333 -55.3167 270° West 310 357 18,500 1,740 Climbing Gander Center
09:27PM 48.7167 -55.4500 259° West 320 368 20,200 1,500 Climbing Gander Center
09:28PM 48.7000 -55.5833 259° West 330 380 21,600 1,320 Climbing Gander Center
09:29PM 48.6833 -55.7333 261° West 330 380 22,900 1,200 Climbing Gander Center
09:30PM 48.6667 -55.8667 259° West 340 391 24,000 1,080 Climbing Gander Center
09:31PM 48.6667 -56.0167 270° West 340 391 25,100 1,020 Climbing Gander Center
09:32PM 48.6333 -56.1500 249° West 350 403 26,100 1,200 Climbing Gander Center
09:33PM 48.6167 -56.3000 261° West 340 391 27,500 1,260 Climbing Gander Center
09:34PM 48.6167 -56.4333 270° West 330 380 28,700 1,140 Climbing Gander Center
09:35PM 48.5833 -56.5833 251° West 340 391 29,800 1,080 Climbing Gander Center
09:36PM 48.5667 -56.7167 259° West 340 391 30,900 1,140 Climbing Gander Center
09:37PM 48.5667 -56.8667 270° West 340 391 32,100 1,260 Climbing Gander Center
09:38PM 48.5500 -56.9833 258° West 340 391 33,500 1,380 Climbing Gander Center
09:39PM 48.5167 -57.1167 249° West 330 380 34,900 1,500 Climbing Gander Center
09:40PM 48.5167 -57.2667 270° West 320 368 36,500 1,500 Climbing Gander Center
09:41PM 48.5000 -57.4000 259° West 310 357 37,900 720 Climbing Gander Center
09:42PM 48.4667 -57.5333 249° West 320 368 38,000  Climbing Gander Center
09:43PM 48.4500 -57.6833 261° West 340 391 38,000  Level Gander Center
09:44PM 48.4500 -57.8333 270° West 360 414 38,000  Level Gander Center
09:45PM 48.4167 -57.9833 252° West 380 437 38,000  Level Gander Center
09:46PM 48.4000 -58.1333 261° West 380 437 38,000  Level Gander Center
09:47PM 48.3667 -58.2833 252° West 390 449 38,000  Level Gander Center
09:48PM 48.3667 -58.4333 270° West 390 449 38,000  Level Gander Center
09:49PM 48.3333 -58.6167 255° West 390 449 38,000  Level Gander Center
09:50PM 48.3167 -58.7667 261° West 380 437 38,000  Level Gander Center
09:51PM 48.2833 -58.9167 252° West 380 437 38,000  Level Gander Center
09:52PM 48.2833 -59.0667 270° West 380 437 38,000  Level Gander Center
09:53PM 48.2500 -59.2167 252° West 380 437 38,000  Level Gander Center
09:54PM 48.2333 -59.3833 262° West 360 414 38,000  Level Gander Center
09:55PM 48.2167 -59.5333 261° West 350 403 38,000  Level Gander Center
09:56PM 48.1833 -59.6500 247° West 350 403 38,000  Level Gander Center
09:57PM 48.1667 -59.8000 261° West 360 414 38,000  Level Gander Center
09:58PM 48.1333 -59.9500 252° West 370 426 38,000 360 Level Gander Center
09:59PM 48.0833 -60.1000 244° Southwest 380 437 38,800 1,020 Climbing Gander Center
10:00PM 48.0500 -60.2333 250° West 360 414 40,100 1,320 Climbing Gander Center
10:01PM 48.0167 -60.3500 247° West 330 380 41,500 900 Climbing Gander Center
10:02PM 48.0000 -60.4833 259° West 330 380 41,900 360 Climbing Gander Center
10:03PM 47.9667 -60.6333 252° West 330 380 42,300 300 Climbing Gander Center
10:04PM 47.9500 -60.7500 258° West 340 391 42,600 300 Climbing Gander Center
10:05PM 47.9333 -60.9000 261° West 350 403 42,900 180 Climbing Gander Center
10:06PM 47.9167 -61.0500 261° West 360 414 43,000  Climbing Gander Center
10:07PM 47.8833 -61.2000 252° West 370 426 43,000  Level Gander Center
10:08PM 47.8667 -61.3833 262° West 390 449 43,000  Level Gander Center
10:09PM 47.8333 -61.5333 252° West 390 449 43,000  Level Gander Center
10:10PM 47.8167 -61.6833 261° West 390 449 43,000  Level Gander Center
10:11PM 47.7833 -61.8500 253° West 400 460 43,000  Level Gander Center
10:12PM 47.7667 -62.0000 261° West 400 460 43,000  Level Gander Center
10:13PM 47.7333 -62.1833 251° West 410 472 43,000 -2,100 Level Gander Center
10:13PM 50.0000 -50.0000 251° West 400 460 40,000  Descending ETMS Enhanced Traffic Management System
10:14PM 47.7000 -62.3167 250° West 400 460 43,000 1,920 Climbing Gander Center
10:15PM 47.6667 -62.5000 255° West 410 472 43,000  Level Gander Center
10:16PM 47.6333 -62.6500 252° West 400 460 43,000  Level Gander Center
10:17PM 47.6167 -62.8167 262° West 400 460 43,000  Level Gander Center
10:18PM 47.5833 -62.9667 252° West 400 460 43,000  Level Gander Center
10:19PM 47.5667 -63.1333 262° West 400 460 43,000  Level Gander Center
10:20PM 47.5500 -63.2833 261° West 400 460 43,000  Level Gander Center
10:21PM 47.5000 -63.4500 246° West 400 460 43,000  Level Gander Center
10:22PM 47.4667 -63.6000 252° West 410 472 43,000  Level Gander Center
10:23PM 47.4500 -63.7833 262° West 410 472 43,000  Level Gander Center
10:24PM 47.4167 -63.9500 254° West 400 460 43,000  Level Gander Center
10:25PM 47.4000 -64.1000 261° West 400 460 43,000  Level Gander Center
10:26PM 47.3500 -64.2333 241° Southwest 390 449 43,000  Level Gander Center
10:27PM 47.3333 -64.3833 261° West 390 449 43,000  Level Gander Center
10:28PM 47.3000 -64.5500 254° West 390 449 43,000  Level Gander Center
10:29PM 47.2833 -64.7000 261° West 390 449 43,000  Level Gander Center
10:30PM 47.2500 -64.8500 252° West 390 449 43,000  Level Gander Center
10:31PM 47.2167 -65.0167 254° West 400 460 43,000  Level Gander Center
10:32PM 47.2000 -65.1833 262° West 390 449 43,000  Level Gander Center
10:33PM 47.1500 -65.3333 244° Southwest 390 449 43,000  Level Gander Center
10:34PM 47.1167 -65.4833 252° West 390 449 43,000  Level Gander Center
10:35PM 47.1000 -65.6167 260° West 390 449 43,000  Level Gander Center
10:36PM 47.0667 -65.7667 252° West 390 449 43,000  Level Gander Center
10:36PM 47.0669 -65.8819 270° West 462 532 43,000  Level Boston Center
10:37PM 47.0167 -66.0000 238° Southwest 380 437 43,000  Level Moncton Center
10:38PM 47.0000 -66.1333 260° West 380 437 43,000  Level Moncton Center
10:39PM 46.9667 -66.2833 252° West 380 437 43,000  Level Moncton Center
10:40PM 46.9333 -66.4333 252° West 380 437 43,000  Level Moncton Center
10:41PM 46.9167 -66.5833 261° West 370 426 43,000  Level Moncton Center
10:42PM 46.8667 -66.7167 241° Southwest 370 426 43,000  Level Moncton Center
10:43PM 46.8333 -66.8667 252° West 380 437 43,000  Level Moncton Center
10:44PM 46.8167 -67.0167 261° West 380 437 43,000  Level Moncton Center
10:45PM 46.7833 -67.1667 252° West 380 437 43,000  Level Moncton Center
10:46PM 46.7500 -67.3000 250° West 370 426 43,100 300 Climbing Moncton Center
10:47PM 46.7167 -67.4500 252° West 370 426 43,700 540 Climbing Moncton Center
10:48PM 46.6833 -67.6000 252° West 360 414 44,200 420 Climbing Moncton Center
10:49PM 46.6667 -67.7167 258° West 360 414 44,600 240 Climbing Moncton Center
10:50PM 46.6328 -67.8958 255° West 370 426 44,800 120 Climbing Boston Center
10:51PM 46.6008 -68.0406 252° West 378 435 45,000 60 Climbing Boston Center
10:52PM 46.5686 -68.1819 252° West 378 435 45,000  Level Boston Center
10:53PM 46.5339 -68.3233 250° West 378 435 45,000  Level Boston Center
10:54PM 46.5036 -68.4703 253° West 378 435 45,000  Level Boston Center
10:55PM 46.4689 -68.6144 251° West 378 435 45,000  Level Boston Center
10:56PM 46.4342 -68.7614 251° West 383 441 45,000  Level Boston Center
10:57PM 46.3833 -68.8833 239° Southwest 390 449 45,000  Level Moncton Center
10:58PM 46.3667 -69.0333 261° West 390 449 45,000  Level Moncton Center
10:59PM 46.3333 -69.1667 250° West 390 449 45,000  Level Moncton Center
11:00PM 46.2833 -69.3167 244° Southwest 390 449 45,000  Level Moncton Center
11:01PM 46.2500 -69.4833 254° West 400 460 45,000  Level Moncton Center
11:02PM 46.2167 -69.6167 250° West 380 437 45,000  Level Moncton Center
11:03PM 46.1831 -69.8058 256° West 394 453 45,000  Level Boston Center
11:04PM 46.1447 -69.9575 250° West 394 453 45,000  Level Boston Center
11:05PM 46.1064 -70.1089 250° West 394 453 45,000  Level Boston Center
11:06PM 46.0667 -70.2333 245° Southwest 400 460 45,000  Level Montreal Center
11:07PM 46.0333 -70.3833 252° West 400 460 45,000  Level Moncton Center
11:08PM 46.0000 -70.5500 254° West 410 472 45,000  Level Moncton Center
11:09PM 45.9500 -70.6833 242° Southwest 410 472 45,000  Level Moncton Center
11:10PM 45.9000 -70.8500 247° West 410 472 45,000  Level Moncton Center
11:11PM 45.9000 -71.0167 270° West 410 472 45,000  Level Moncton Center
11:12PM 45.8833 -71.1500 260° West 410 472 45,000  Level Moncton Center
11:13PM 45.8833 -71.3167 270° West 410 472 45,000  Level Moncton Center
11:14PM 45.8333 -71.4833 247° West 410 472 45,000  Level Moncton Center
11:15PM 45.8167 -71.6333 261° West 410 472 45,000  Level Moncton Center
11:16PM 45.7667 -71.7833 245° Southwest 410 472 45,000  Level Moncton Center
11:17PM 45.7333 -71.9500 254° West 410 472 45,000  Level Moncton Center
11:18PM 45.7000 -72.1000 252° West 410 472 45,000  Level Moncton Center
11:19PM 45.6500 -72.2500 245° Southwest 410 472 45,000  Level Moncton Center
11:20PM 45.6167 -72.4000 252° West 410 472 45,000  Level Moncton Center
11:21PM 45.5833 -72.5500 252° West 410 472 45,000  Level Moncton Center
11:22PM 45.5500 -72.7167 254° West 410 472 45,000  Level Moncton Center
11:23PM 45.5000 -72.8833 247° West 410 472 45,000  Level Moncton Center
11:24PM 45.4667 -73.0167 250° West 410 472 45,000  Level Moncton Center
11:25PM 45.4333 -73.1833 254° West 410 472 45,000  Level Moncton Center
11:26PM 45.3833 -73.3333 245° Southwest 410 472 45,000  Level Moncton Center
11:27PM 45.3500 -73.4833 253° West 420 483 45,000  Level Moncton Center
11:28PM 45.3000 -73.6333 245° Southwest 420 483 45,000  Level Moncton Center
11:29PM 45.2667 -73.8000 254° West 420 483 45,000  Level Moncton Center
11:30PM 45.2333 -73.9500 253° West 420 483 45,000  Level Moncton Center
11:32PM 45.1667 -74.1167 240° Southwest 410 472 45,000  Level Toronto Center
11:33PM 45.1167 -74.2667 245° Southwest 410 472 45,000  Level Toronto Center
11:34PM 45.1000 -74.4333 262° West 410 472 45,000  Level Toronto Center
11:35PM 45.0500 -74.5833 245° Southwest 410 472 45,000  Level Toronto Center
11:36PM 45.0167 -74.7333 253° West 410 472 45,000  Level Toronto Center
11:37PM 44.9667 -74.8667 242° Southwest 410 472 45,000  Level Toronto Center
11:38PM 44.9167 -75.0167 245° Southwest 410 472 45,000  Level Toronto Center
11:39PM 44.8833 -75.1833 254° West 410 472 45,000  Level Toronto Center
11:40PM 44.8500 -75.3333 253° West 410 472 45,000  Level Toronto Center
11:41PM 44.8000 -75.4667 242° Southwest 410 472 45,000  Level Toronto Center
11:42PM 44.7667 -75.6167 253° West 420 483 45,000  Level Toronto Center
11:43PM 44.7167 -75.7833 247° West 420 483 45,000  Level Toronto Center
11:44PM 44.6667 -75.9333 245° Southwest 420 483 45,000  Level Toronto Center
11:45PM 44.6333 -76.0667 251° West 420 483 45,000  Level Toronto Center
11:46PM 44.5833 -76.2333 247° West 420 483 45,000  Level Toronto Center
11:47PM 44.5333 -76.3833 245° Southwest 420 483 45,000  Level Toronto Center
11:48PM 44.4833 -76.5500 247° West 420 483 45,000  Level Toronto Center
11:49PM 44.4667 -76.6833 260° West 420 483 45,000  Level Toronto Center
11:50PM 44.4167 -76.8333 245° Southwest 420 483 45,000  Level Toronto Center
11:51PM 44.3667 -77.0000 247° West 420 483 45,000  Level Toronto Center
11:52PM 44.3167 -77.1333 242° Southwest 420 483 45,000  Level Toronto Center
11:54PM 44.2333 -77.4500 250° West 410 472 45,000  Level Toronto Center
11:55PM 44.2000 -77.5833 251° West 410 472 45,000  Level Toronto Center
11:56PM 44.1333 -77.7333 238° Southwest 410 472 45,000  Level Toronto Center
11:57PM 44.1000 -77.8667 251° West 410 472 45,000 -360 Level Toronto Center
11:58PM 44.0500 -78.0167 245° Southwest 410 472 44,300 -1,140 Descending Toronto Center
11:59PM 44.0000 -78.1500 243° Southwest 390 449 42,800 -1,560 Descending Toronto Center
12:00AM 43.9667 -78.2833 251° West 370 426 41,200 -1,740 Descending Toronto Center
12:01AM 43.9167 -78.4000 239° Southwest 370 426 39,400 -1,620 Descending Toronto Center
12:02AM 43.9000 -78.5500 261° West 380 437 38,000 -1,500 Descending Toronto Center
12:03AM 43.8500 -78.6833 243° Southwest 390 449 36,400 -1,560 Descending Toronto Center
12:04AM 43.8000 -78.8167 243° Southwest 400 460 35,000 -1,200 Descending Toronto Center
12:05AM 43.7500 -78.9667 245° Southwest 400 460 34,000 -1,320 Descending Toronto Center
12:07AM 43.6609 -79.2177 245° Southwest  Level FlightAware Approximate
12:14AM 42.6500 -83.4167 251° West  Level FlightAware Approximate
12:15AM 42.6656 -83.4205 251° West  Level Estimated
12:16AM 42.6656 -83.4205 251° West  Level Estimated
12:17AM 42.6656 -83.4205 251° West  Level Estimated
12:18AM 42.6656 -83.4205 251° West  Level Estimated
12:18AM 43.1203 -80.9103 251° West 460 529 15,700  Level Cleveland Center
12:19AM 42.6656 -83.4205 251° West  Level Estimated
12:19AM 43.0719 -81.0492 245° Southwest 430 495 14,200  Level Cleveland Center
12:20AM 42.6656 -83.4205 251° West  Level Estimated
12:20AM 43.0464 -81.1883 256° West 389 448 13,200  Level Cleveland Center
12:21AM 42.6656 -83.4205 251° West  Level Estimated
12:21AM 43.0247 -81.3272 258° West 377 434 12,600  Level Cleveland Center
12:22AM 42.6656 -83.4205 251° West  Level Estimated
12:22AM 42.9964 -81.4744 255° West 377 434 12,200  Level Cleveland Center
12:23AM 42.6656 -83.4205 251° West  Level Estimated
12:23AM 42.9747 -81.5989 257° West 371 427 11,900  Level Cleveland Center
12:24AM 42.9503 -81.7433 257° West 379 436 11,900  Level Cleveland Center
12:25AM 42.9239 -81.8931 257° West 379 436 11,900  Level Cleveland Center
12:26AM 42.9011 -82.0342 258° West 379 436 11,900  Level Cleveland Center
12:27AM 42.8764 -82.1725 256° West 379 436 12,000  Climbing Cleveland Center
12:28AM 42.8494 -82.3106 255° West 379 436 12,000 -60 Level Cleveland Center
12:29AM 42.8369 -82.4547 263° West 330 380 11,900 -60 Descending Cleveland Center
12:30AM 42.8308 -82.5650 266° West 352 405 11,900 -300 Level Cleveland Center
12:31AM 42.8267 -82.6808 267° West 333 383 11,400 -1,020 Descending Cleveland Center
12:32AM 42.8267 -82.7856 270° West 303 349 9,900 -1,500 Descending Cleveland Center
12:33AM 42.7958 -82.8836 247° West 280 322 8,500 -1,560 Descending Cleveland Center
12:34AM 42.7583 -82.9756 241° Southwest 274 315 6,900 -1,560 Descending Cleveland Center
12:35AM 42.7233 -83.0619 241° Southwest 258 297 5,400 -1,440 Descending Cleveland Center
12:36AM 42.6903 -83.1397 240° Southwest 258 297 4,000 -1,500 Descending Cleveland Center
12:37AM 42.6675 -83.2206 249° West 247 284 2,500 -900 Descending Cleveland Center
12:38AM 42.6661 -83.2825 268° West 209 241 2,200 -300 Descending Cleveland Center
12:39AM 42.6650 -83.3333 268° West 119 137 1,900 -480 Descending Cleveland Center
12:40AM 42.6658 -83.3814 271° West 130 150 1,300 -480 Descending Cleveland Center
12:41AM 42.6653 -83.4097 268° West 133 153 1,000 -300 Descending Cleveland Center